createdAt,value
2022-07-28T00:00:25.171Z,1.60
2022-07-28T00:10:23.695Z,1.50
2022-07-28T00:15:17.127Z,1.70
2022-07-28T00:20:10.808Z,1.50
2022-07-28T00:25:02.830Z,1.90
2022-07-28T00:35:00.599Z,1.70
2022-07-28T00:39:54.415Z,1.90
2022-07-28T00:44:46.681Z,1.90
2022-07-28T00:49:40.305Z,2.00
2022-07-28T00:54:34.051Z,2.03
2022-07-28T00:59:26.224Z,1.92
2022-07-28T01:04:19.436Z,2.10
2022-07-28T01:09:20.116Z,1.73
2022-07-28T01:14:31.998Z,2.58
2022-07-28T01:19:43.492Z,1.70
2022-07-28T01:25:23.696Z,2.05
2022-07-28T01:30:44.755Z,2.22
2022-07-28T01:35:49.790Z,2.25
2022-07-28T01:40:45.688Z,2.83
2022-07-28T01:45:43.778Z,2.53
2022-07-28T01:50:37.653Z,2.50
2022-07-28T01:55:31.800Z,2.28
2022-07-28T02:00:29.022Z,2.50
2022-07-28T02:05:25.757Z,2.17
2022-07-28T02:10:21.101Z,2.60
2022-07-28T02:15:15.831Z,3.13
2022-07-28T02:20:11.506Z,2.38
2022-07-28T02:25:04.029Z,2.67
2022-07-28T02:30:36.184Z,2.50
2022-07-28T02:35:49.750Z,2.58
2022-07-28T02:40:45.453Z,2.40
2022-07-28T02:50:52.948Z,2.47
2022-07-28T02:55:49.599Z,2.70
2022-07-28T03:00:43.009Z,2.63
2022-07-28T03:05:36.062Z,2.80
2022-07-28T03:10:32.792Z,2.70
2022-07-28T03:15:27.169Z,2.55
2022-07-28T03:20:19.022Z,2.80
2022-07-28T03:25:26.577Z,2.28
2022-07-28T03:30:26.500Z,2.75
2022-07-28T03:35:18.824Z,2.53
2022-07-28T03:40:12.906Z,2.70
2022-07-28T03:45:07.222Z,2.88
2022-07-28T03:49:58.972Z,2.88
2022-07-28T03:54:50.703Z,2.65
2022-07-28T03:59:42.501Z,3.78
2022-07-28T04:04:34.607Z,2.70
2022-07-28T04:09:26.981Z,3.08
2022-07-28T04:14:19.520Z,2.70
2022-07-28T04:19:11.657Z,2.78
2022-07-28T04:24:12.978Z,2.47
2022-07-28T04:29:05.652Z,3.15
2022-07-28T04:33:58.542Z,3.50
2022-07-28T04:43:57.194Z,2.80
2022-07-28T05:14:20.742Z,2.30
2022-07-28T05:19:13.355Z,2.25
2022-07-28T17:55:35.622Z,3.30
2022-07-28T18:57:21.142Z,3.20
2022-07-28T20:20:43.581Z,1.85
2022-07-28T20:25:36.938Z,1.77
2022-07-28T20:30:34.526Z,1.73
2022-07-28T20:50:46.224Z,1.90
2022-07-28T21:00:45.966Z,1.65
2022-07-28T21:10:46.154Z,1.95
2022-07-28T21:15:42.009Z,1.77
2022-07-28T21:20:35.907Z,1.75
2022-07-28T21:30:38.386Z,1.80
2022-07-28T21:35:34.512Z,1.58
2022-07-28T21:40:26.709Z,1.20
2022-07-28T21:45:26.765Z,1.33
2022-07-28T21:50:18.729Z,1.50
2022-07-28T21:55:19.529Z,1.20
2022-07-28T22:00:13.887Z,1.33
2022-07-28T22:10:12.717Z,1.30
2022-07-28T22:15:05.597Z,1.30
2022-07-28T22:19:57.770Z,1.23
2022-07-28T22:24:50.205Z,1.13
2022-07-28T22:29:45.993Z,1.00
2022-07-28T22:34:44.516Z,1.20
2022-07-28T22:39:36.374Z,1.00
2022-07-28T22:44:30.494Z,0.90
2022-07-28T22:54:29.345Z,1.30
2022-07-28T22:59:21.225Z,1.05
2022-07-28T23:09:20.877Z,1.10
2022-07-28T23:14:15.397Z,0.93
2022-07-28T23:19:10.520Z,1.27
2022-07-28T23:24:02.517Z,0.90
2022-07-28T23:28:57.444Z,1.05
2022-07-28T23:33:55.021Z,1.00
2022-07-28T23:38:49.459Z,1.02
2022-07-28T23:43:42.444Z,1.10
2022-07-28T23:48:35.257Z,1.30
2022-07-28T23:53:27.693Z,1.20
2022-07-28T23:58:20.222Z,1.17
